sensor_id;sensor_type;location;lat;lon;timestamp;pressure;altitude;pressure_sealevel;temperature
49785;BMP280;35679;38.732;-121.358;2024-02-26T00:02:37;101102.53;;;21.15
49785;BMP280;35679;38.732;-121.358;2024-02-26T00:05:27;101094.63;;;21.20
49785;BMP280;35679;38.732;-121.358;2024-02-26T00:08:16;101091.19;;;21.13
49785;BMP280;35679;38.732;-121.358;2024-02-26T00:11:06;101090.25;;;21.08
49785;BMP280;35679;38.732;-121.358;2024-02-26T00:13:55;101084.19;;;21.12
49785;BMP280;35679;38.732;-121.358;2024-02-26T00:16:45;101083.38;;;21.11
49785;BMP280;35679;38.732;-121.358;2024-02-26T00:19:35;101088.75;;;21.11
49785;BMP280;35679;38.732;-121.358;2024-02-26T00:22:25;101080.31;;;21.08
49785;BMP280;35679;38.732;-121.358;2024-02-26T00:25:14;101078.00;;;21.11
49785;BMP280;35679;38.732;-121.358;2024-02-26T00:28:05;101068.19;;;21.06
49785;BMP280;35679;38.732;-121.358;2024-02-26T00:30:54;101069.44;;;21.03
49785;BMP280;35679;38.732;-121.358;2024-02-26T00:33:44;101063.63;;;21.06
49785;BMP280;35679;38.732;-121.358;2024-02-26T00:36:34;101067.94;;;21.07
49785;BMP280;35679;38.732;-121.358;2024-02-26T00:39:23;101067.81;;;21.02
49785;BMP280;35679;38.732;-121.358;2024-02-26T00:42:13;101060.38;;;21.04
49785;BMP280;35679;38.732;-121.358;2024-02-26T00:45:03;101068.19;;;21.06
49785;BMP280;35679;38.732;-121.358;2024-02-26T00:47:52;101056.66;;;21.05
49785;BMP280;35679;38.732;-121.358;2024-02-26T00:50:42;101067.56;;;21.04
49785;BMP280;35679;38.732;-121.358;2024-02-26T00:53:32;101067.38;;;21.05
49785;BMP280;35679;38.732;-121.358;2024-02-26T00:56:22;101063.47;;;21.01
49785;BMP280;35679;38.732;-121.358;2024-02-26T00:59:12;101063.28;;;21.03
49785;BMP280;35679;38.732;-121.358;2024-02-26T01:02:01;101060.44;;;20.98
49785;BMP280;35679;38.732;-121.358;2024-02-26T01:04:51;101066.88;;;20.97
49785;BMP280;35679;38.732;-121.358;2024-02-26T01:07:40;101060.00;;;21.01
49785;BMP280;35679;38.732;-121.358;2024-02-26T01:10:30;101060.72;;;21.08
49785;BMP280;35679;38.732;-121.358;2024-02-26T01:13:20;101062.47;;;21.13
49785;BMP280;35679;38.732;-121.358;2024-02-26T01:16:09;101062.63;;;21.18
49785;BMP280;35679;38.732;-121.358;2024-02-26T01:18:59;101059.72;;;21.20
49785;BMP280;35679;38.732;-121.358;2024-02-26T01:21:49;101058.91;;;21.19
49785;BMP280;35679;38.732;-121.358;2024-02-26T01:24:38;101063.00;;;21.22
49785;BMP280;35679;38.732;-121.358;2024-02-26T01:27:28;101049.34;;;21.23
49785;BMP280;35679;38.732;-121.358;2024-02-26T01:30:17;101055.19;;;21.20
49785;BMP280;35679;38.732;-121.358;2024-02-26T01:33:07;101050.63;;;21.21
49785;BMP280;35679;38.732;-121.358;2024-02-26T01:35:57;101055.41;;;21.19
49785;BMP280;35679;38.732;-121.358;2024-02-26T01:38:46;101061.59;;;21.19
49785;BMP280;35679;38.732;-121.358;2024-02-26T01:41:36;101065.31;;;21.18
49785;BMP280;35679;38.732;-121.358;2024-02-26T01:44:26;101069.06;;;21.17
49785;BMP280;35679;38.732;-121.358;2024-02-26T01:47:16;101083.53;;;21.16
49785;BMP280;35679;38.732;-121.358;2024-02-26T01:50:06;101079.44;;;21.14
49785;BMP280;35679;38.732;-121.358;2024-02-26T01:52:57;101080.47;;;21.13
49785;BMP280;35679;38.732;-121.358;2024-02-26T01:55:47;101092.47;;;21.10
49785;BMP280;35679;38.732;-121.358;2024-02-26T01:58:37;101087.56;;;21.08
49785;BMP280;35679;38.732;-121.358;2024-02-26T02:01:28;101093.13;;;21.06
49785;BMP280;35679;38.732;-121.358;2024-02-26T02:04:18;101093.59;;;21.03
49785;BMP280;35679;38.732;-121.358;2024-02-26T02:07:08;101088.25;;;21.03
49785;BMP280;35679;38.732;-121.358;2024-02-26T02:09:58;101092.19;;;21.01
49785;BMP280;35679;38.732;-121.358;2024-02-26T02:12:48;101088.09;;;20.98
49785;BMP280;35679;38.732;-121.358;2024-02-26T02:15:38;101082.97;;;20.97
49785;BMP280;35679;38.732;-121.358;2024-02-26T02:18:27;101085.84;;;20.95
49785;BMP280;35679;38.732;-121.358;2024-02-26T02:21:17;101082.34;;;20.95
49785;BMP280;35679;38.732;-121.358;2024-02-26T02:24:06;101084.44;;;20.93
49785;BMP280;35679;38.732;-121.358;2024-02-26T02:26:59;101079.75;;;20.88
49785;BMP280;35679;38.732;-121.358;2024-02-26T02:29:49;101086.16;;;20.87
49785;BMP280;35679;38.732;-121.358;2024-02-26T02:32:40;101083.72;;;20.86
49785;BMP280;35679;38.732;-121.358;2024-02-26T02:35:30;101076.94;;;20.83
49785;BMP280;35679;38.732;-121.358;2024-02-26T02:38:20;101080.03;;;20.80
49785;BMP280;35679;38.732;-121.358;2024-02-26T02:41:09;101083.78;;;20.79
49785;BMP280;35679;38.732;-121.358;2024-02-26T02:43:59;101072.22;;;20.79
49785;BMP280;35679;38.732;-121.358;2024-02-26T02:46:48;101080.75;;;20.76
49785;BMP280;35679;38.732;-121.358;2024-02-26T02:49:39;101083.41;;;20.76
49785;BMP280;35679;38.732;-121.358;2024-02-26T02:52:29;101077.44;;;20.74
49785;BMP280;35679;38.732;-121.358;2024-02-26T02:55:18;101099.91;;;20.73
49785;BMP280;35679;38.732;-121.358;2024-02-26T02:58:07;101098.50;;;20.70
49785;BMP280;35679;38.732;-121.358;2024-02-26T03:00:57;101101.41;;;20.69
49785;BMP280;35679;38.732;-121.358;2024-02-26T03:03:49;101107.81;;;20.68
49785;BMP280;35679;38.732;-121.358;2024-02-26T03:06:40;101106.16;;;20.67
49785;BMP280;35679;38.732;-121.358;2024-02-26T03:09:29;101110.09;;;20.64
49785;BMP280;35679;38.732;-121.358;2024-02-26T03:12:19;101111.16;;;20.63
49785;BMP280;35679;38.732;-121.358;2024-02-26T03:15:09;101120.25;;;20.62
49785;BMP280;35679;38.732;-121.358;2024-02-26T03:18:01;101123.16;;;20.61
49785;BMP280;35679;38.732;-121.358;2024-02-26T03:20:52;101128.13;;;20.57
49785;BMP280;35679;38.732;-121.358;2024-02-26T03:23:42;101135.56;;;20.55
49785;BMP280;35679;38.732;-121.358;2024-02-26T03:26:32;101132.28;;;20.53
49785;BMP280;35679;38.732;-121.358;2024-02-26T03:29:22;101128.19;;;20.51
49785;BMP280;35679;38.732;-121.358;2024-02-26T03:32:12;101137.28;;;20.50
49785;BMP280;35679;38.732;-121.358;2024-02-26T03:35:01;101139.97;;;20.50
49785;BMP280;35679;38.732;-121.358;2024-02-26T03:37:51;101143.06;;;20.47
49785;BMP280;35679;38.732;-121.358;2024-02-26T03:40:40;101139.81;;;20.45
49785;BMP280;35679;38.732;-121.358;2024-02-26T03:43:30;101141.66;;;20.44
49785;BMP280;35679;38.732;-121.358;2024-02-26T03:46:19;101133.03;;;20.42
49785;BMP280;35679;38.732;-121.358;2024-02-26T03:49:09;101137.78;;;20.41
49785;BMP280;35679;38.732;-121.358;2024-02-26T03:51:59;101140.69;;;20.39
49785;BMP280;35679;38.732;-121.358;2024-02-26T03:54:49;101141.94;;;20.37
49785;BMP280;35679;38.732;-121.358;2024-02-26T03:57:38;101148.56;;;20.34
49785;BMP280;35679;38.732;-121.358;2024-02-26T04:00:28;101151.47;;;20.33
49785;BMP280;35679;38.732;-121.358;2024-02-26T04:03:19;101149.84;;;20.32
49785;BMP280;35679;38.732;-121.358;2024-02-26T04:06:09;101162.63;;;20.30
49785;BMP280;35679;38.732;-121.358;2024-02-26T04:09:10;101173.34;;;20.30
49785;BMP280;35679;38.732;-121.358;2024-02-26T04:12:00;101161.44;;;20.26
49785;BMP280;35679;38.732;-121.358;2024-02-26T04:14:49;101172.94;;;20.26
49785;BMP280;35679;38.732;-121.358;2024-02-26T04:17:39;101167.00;;;20.24
49785;BMP280;35679;38.732;-121.358;2024-02-26T04:20:29;101177.91;;;20.23
49785;BMP280;35679;38.732;-121.358;2024-02-26T04:23:19;101182.09;;;20.19
49785;BMP280;35679;38.732;-121.358;2024-02-26T04:26:09;101184.38;;;20.15
49785;BMP280;35679;38.732;-121.358;2024-02-26T04:28:59;101186.47;;;20.13
49785;BMP280;35679;38.732;-121.358;2024-02-26T04:31:48;101187.72;;;20.11
49785;BMP280;35679;38.732;-121.358;2024-02-26T04:34:38;101194.34;;;20.08
49785;BMP280;35679;38.732;-121.358;2024-02-26T04:37:28;101202.38;;;20.08
49785;BMP280;35679;38.732;-121.358;2024-02-26T04:40:21;101199.88;;;20.07
49785;BMP280;35679;38.732;-121.358;2024-02-26T04:43:11;101199.53;;;20.03
49785;BMP280;35679;38.732;-121.358;2024-02-26T04:46:01;101197.88;;;20.02
49785;BMP280;35679;38.732;-121.358;2024-02-26T04:48:51;101206.13;;;20.01
49785;BMP280;35679;38.732;-121.358;2024-02-26T04:51:43;101220.16;;;19.96
49785;BMP280;35679;38.732;-121.358;2024-02-26T04:54:33;101213.16;;;19.95
49785;BMP280;35679;38.732;-121.358;2024-02-26T04:57:23;101223.47;;;19.92
49785;BMP280;35679;38.732;-121.358;2024-02-26T05:00:13;101226.16;;;19.92
49785;BMP280;35679;38.732;-121.358;2024-02-26T05:03:02;101227.19;;;19.91
49785;BMP280;35679;38.732;-121.358;2024-02-26T05:05:52;101235.41;;;19.89
49785;BMP280;35679;38.732;-121.358;2024-02-26T05:08:42;101235.84;;;19.86
49785;BMP280;35679;38.732;-121.358;2024-02-26T05:11:32;101235.22;;;19.84
49785;BMP280;35679;38.732;-121.358;2024-02-26T05:14:22;101231.75;;;19.84
49785;BMP280;35679;38.732;-121.358;2024-02-26T05:17:11;101239.38;;;19.80
49785;BMP280;35679;38.732;-121.358;2024-02-26T05:20:01;101245.75;;;19.79
49785;BMP280;35679;38.732;-121.358;2024-02-26T05:22:50;101253.22;;;19.77
49785;BMP280;35679;38.732;-121.358;2024-02-26T05:25:40;101255.72;;;19.73
49785;BMP280;35679;38.732;-121.358;2024-02-26T05:28:30;101253.03;;;19.73
49785;BMP280;35679;38.732;-121.358;2024-02-26T05:31:19;101257.16;;;19.69
49785;BMP280;35679;38.732;-121.358;2024-02-26T05:34:09;101259.00;;;19.68
49785;BMP280;35679;38.732;-121.358;2024-02-26T05:36:58;101261.06;;;19.66
49785;BMP280;35679;38.732;-121.358;2024-02-26T05:39:48;101263.16;;;19.64
49785;BMP280;35679;38.732;-121.358;2024-02-26T05:42:37;101257.41;;;19.61
49785;BMP280;35679;38.732;-121.358;2024-02-26T05:45:26;101272.84;;;19.59
49785;BMP280;35679;38.732;-121.358;2024-02-26T05:48:16;101263.16;;;19.58
49785;BMP280;35679;38.732;-121.358;2024-02-26T05:51:06;101261.53;;;19.57
49785;BMP280;35679;38.732;-121.358;2024-02-26T05:53:55;101270.81;;;19.54
49785;BMP280;35679;38.732;-121.358;2024-02-26T05:56:44;101262.97;;;19.53
49785;BMP280;35679;38.732;-121.358;2024-02-26T05:59:34;101272.06;;;19.52
49785;BMP280;35679;38.732;-121.358;2024-02-26T06:02:23;101262.59;;;19.49
49785;BMP280;35679;38.732;-121.358;2024-02-26T06:05:13;101263.84;;;19.47
49785;BMP280;35679;38.732;-121.358;2024-02-26T06:08:04;101261.56;;;19.44
49785;BMP280;35679;38.732;-121.358;2024-02-26T06:10:55;101259.94;;;19.43
49785;BMP280;35679;38.732;-121.358;2024-02-26T06:13:45;101268.38;;;19.40
49785;BMP280;35679;38.732;-121.358;2024-02-26T06:16:34;101269.41;;;19.39
49785;BMP280;35679;38.732;-121.358;2024-02-26T06:19:23;101270.66;;;19.36
49785;BMP280;35679;38.732;-121.358;2024-02-26T06:22:13;101278.06;;;19.34
49785;BMP280;35679;38.732;-121.358;2024-02-26T06:25:03;101277.25;;;19.34
49785;BMP280;35679;38.732;-121.358;2024-02-26T06:27:52;101279.31;;;19.32
49785;BMP280;35679;38.732;-121.358;2024-02-26T06:30:42;101280.38;;;19.31
49785;BMP280;35679;38.732;-121.358;2024-02-26T06:33:32;101288.38;;;19.31
49785;BMP280;35679;38.732;-121.358;2024-02-26T06:36:22;101290.66;;;19.27
49785;BMP280;35679;38.732;-121.358;2024-02-26T06:39:12;101296.22;;;19.26
49785;BMP280;35679;38.732;-121.358;2024-02-26T06:42:01;101290.03;;;19.25
49785;BMP280;35679;38.732;-121.358;2024-02-26T06:44:51;101300.31;;;19.22
49785;BMP280;35679;38.732;-121.358;2024-02-26T06:47:40;101301.38;;;19.21
49785;BMP280;35679;38.732;-121.358;2024-02-26T06:50:30;101303.44;;;19.19
49785;BMP280;35679;38.732;-121.358;2024-02-26T06:53:19;101295.00;;;19.15
49785;BMP280;35679;38.732;-121.358;2024-02-26T06:56:09;101296.66;;;19.16
49785;BMP280;35679;38.732;-121.358;2024-02-26T06:58:58;101290.88;;;19.13
49785;BMP280;35679;38.732;-121.358;2024-02-26T07:01:48;101283.47;;;19.08
49785;BMP280;35679;38.732;-121.358;2024-02-26T07:04:37;101291.72;;;19.07
49785;BMP280;35679;38.732;-121.358;2024-02-26T07:07:26;101296.22;;;19.07
49785;BMP280;35679;38.732;-121.358;2024-02-26T07:10:17;101298.47;;;19.03
49785;BMP280;35679;38.732;-121.358;2024-02-26T07:13:06;101292.50;;;19.01
49785;BMP280;35679;38.732;-121.358;2024-02-26T07:15:56;101301.59;;;19.00
49785;BMP280;35679;38.732;-121.358;2024-02-26T07:18:45;101302.59;;;18.99
49785;BMP280;35679;38.732;-121.358;2024-02-26T07:21:35;101289.63;;;18.96
49785;BMP280;35679;38.732;-121.358;2024-02-26T07:24:24;101296.03;;;18.95
49785;BMP280;35679;38.732;-121.358;2024-02-26T07:27:13;101298.88;;;18.94
49785;BMP280;35679;38.732;-121.358;2024-02-26T07:30:07;101302.59;;;18.93
49785;BMP280;35679;38.732;-121.358;2024-02-26T07:33:00;101295.81;;;18.90
49785;BMP280;35679;38.732;-121.358;2024-02-26T07:35:49;101297.03;;;18.88
49785;BMP280;35679;38.732;-121.358;2024-02-26T07:38:38;101301.56;;;18.87
49785;BMP280;35679;38.732;-121.358;2024-02-26T07:41:31;101307.13;;;18.86
49785;BMP280;35679;38.732;-121.358;2024-02-26T07:44:20;101311.03;;;18.83
49785;BMP280;35679;38.732;-121.358;2024-02-26T07:47:10;101315.97;;;18.80
49785;BMP280;35679;38.732;-121.358;2024-02-26T07:49:59;101305.50;;;18.78
49785;BMP280;35679;38.732;-121.358;2024-02-26T07:52:49;101304.06;;;18.76
49785;BMP280;35679;38.732;-121.358;2024-02-26T07:55:40;101306.94;;;18.74
49785;BMP280;35679;38.732;-121.358;2024-02-26T07:58:29;101302.63;;;18.73
49785;BMP280;35679;38.732;-121.358;2024-02-26T08:01:18;101296.63;;;18.71
49785;BMP280;35679;38.732;-121.358;2024-02-26T08:04:08;101304.03;;;18.69
49785;BMP280;35679;38.732;-121.358;2024-02-26T08:06:57;101309.81;;;18.66
49785;BMP280;35679;38.732;-121.358;2024-02-26T08:09:47;101302.00;;;18.65
49785;BMP280;35679;38.732;-121.358;2024-02-26T08:12:37;101296.84;;;18.63
49785;BMP280;35679;38.732;-121.358;2024-02-26T08:15:26;101297.88;;;18.62
49785;BMP280;35679;38.732;-121.358;2024-02-26T08:18:16;101301.56;;;18.61
49785;BMP280;35679;38.732;-121.358;2024-02-26T08:21:06;101297.66;;;18.57
49785;BMP280;35679;38.732;-121.358;2024-02-26T08:23:55;101309.38;;;18.56
49785;BMP280;35679;38.732;-121.358;2024-02-26T08:26:45;101307.72;;;18.55
49785;BMP280;35679;38.732;-121.358;2024-02-26T08:29:35;101307.72;;;18.55
49785;BMP280;35679;38.732;-121.358;2024-02-26T08:32:24;101310.81;;;18.52
49785;BMP280;35679;38.732;-121.358;2024-02-26T08:35:14;101311.84;;;18.51
49785;BMP280;35679;38.732;-121.358;2024-02-26T08:38:04;101313.06;;;18.49
49785;BMP280;35679;38.732;-121.358;2024-02-26T08:40:53;101313.28;;;18.47
49785;BMP280;35679;38.732;-121.358;2024-02-26T08:43:42;101315.13;;;18.47
49785;BMP280;35679;38.732;-121.358;2024-02-26T08:46:32;101316.97;;;18.46
49785;BMP280;35679;38.732;-121.358;2024-02-26T08:49:21;101319.88;;;18.45
49785;BMP280;35679;38.732;-121.358;2024-02-26T08:52:12;101317.38;;;18.43
49785;BMP280;35679;38.732;-121.358;2024-02-26T08:55:03;101315.53;;;18.44
49785;BMP280;35679;38.732;-121.358;2024-02-26T08:57:53;101319.44;;;18.42
49785;BMP280;35679;38.732;-121.358;2024-02-26T09:00:43;101322.31;;;18.40
49785;BMP280;35679;38.732;-121.358;2024-02-26T09:03:32;101321.47;;;18.40
49785;BMP280;35679;38.732;-121.358;2024-02-26T09:06:22;101319.81;;;18.39
49785;BMP280;35679;38.732;-121.358;2024-02-26T09:09:11;101325.16;;;18.39
49785;BMP280;35679;38.732;-121.358;2024-02-26T09:12:01;101323.56;;;18.38
49785;BMP280;35679;38.732;-121.358;2024-02-26T09:14:51;101325.78;;;18.34
49785;BMP280;35679;38.732;-121.358;2024-02-26T09:17:41;101321.25;;;18.35
49785;BMP280;35679;38.732;-121.358;2024-02-26T09:20:30;101322.28;;;18.34
49785;BMP280;35679;38.732;-121.358;2024-02-26T09:23:20;101332.38;;;18.32
49785;BMP280;35679;38.732;-121.358;2024-02-26T09:26:09;101333.59;;;18.29
49785;BMP280;35679;38.732;-121.358;2024-02-26T09:28:59;101320.63;;;18.26
49785;BMP280;35679;38.732;-121.358;2024-02-26T09:31:48;101318.78;;;18.27
49785;BMP280;35679;38.732;-121.358;2024-02-26T09:34:40;101322.69;;;18.24
49785;BMP280;35679;38.732;-121.358;2024-02-26T09:37:30;101329.06;;;18.23
49785;BMP280;35679;38.732;-121.358;2024-02-26T09:40:19;101331.72;;;18.23
49785;BMP280;35679;38.732;-121.358;2024-02-26T09:43:10;101337.44;;;18.20
49785;BMP280;35679;38.732;-121.358;2024-02-26T09:46:03;101333.16;;;18.19
49785;BMP280;35679;38.732;-121.358;2024-02-26T09:48:53;101332.31;;;18.19
49785;BMP280;35679;38.732;-121.358;2024-02-26T09:51:43;101327.97;;;18.18
49785;BMP280;35679;38.732;-121.358;2024-02-26T09:54:33;101329.81;;;18.17
49785;BMP280;35679;38.732;-121.358;2024-02-26T09:57:22;101323.84;;;18.15
49785;BMP280;35679;38.732;-121.358;2024-02-26T10:00:17;101327.56;;;18.14
49785;BMP280;35679;38.732;-121.358;2024-02-26T10:03:13;101318.91;;;18.12
49785;BMP280;35679;38.732;-121.358;2024-02-26T10:06:04;101320.56;;;18.13
49785;BMP280;35679;38.732;-121.358;2024-02-26T10:08:56;101316.03;;;18.14
49785;BMP280;35679;38.732;-121.358;2024-02-26T10:11:48;101319.72;;;18.13
49785;BMP280;35679;38.732;-121.358;2024-02-26T10:14:38;101310.09;;;18.12
49785;BMP280;35679;38.732;-121.358;2024-02-26T10:17:28;101307.44;;;18.12
49785;BMP280;35679;38.732;-121.358;2024-02-26T10:20:18;101301.44;;;18.10
49785;BMP280;35679;38.732;-121.358;2024-02-26T10:23:10;101304.13;;;18.10
49785;BMP280;35679;38.732;-121.358;2024-02-26T10:26:00;101307.59;;;18.10
49785;BMP280;35679;38.732;-121.358;2024-02-26T10:28:49;101297.13;;;18.09
49785;BMP280;35679;38.732;-121.358;2024-02-26T10:31:45;101293.66;;;18.08
49785;BMP280;35679;38.732;-121.358;2024-02-26T10:34:35;101296.91;;;18.04
49785;BMP280;35679;38.732;-121.358;2024-02-26T10:37:30;101289.69;;;17.98
49785;BMP280;35679;38.732;-121.358;2024-02-26T10:40:19;101287.06;;;18.04
49785;BMP280;35679;38.732;-121.358;2024-02-26T10:43:08;101284.16;;;17.99
49785;BMP280;35679;38.732;-121.358;2024-02-26T10:45:58;101283.34;;;17.99
49785;BMP280;35679;38.732;-121.358;2024-02-26T10:48:52;101276.13;;;17.99
49785;BMP280;35679;38.732;-121.358;2024-02-26T10:51:44;101281.69;;;17.98
49785;BMP280;35679;38.732;-121.358;2024-02-26T10:54:37;101262.41;;;17.96
49785;BMP280;35679;38.732;-121.358;2024-02-26T10:57:50;101259.91;;;17.94
49785;BMP280;35679;38.732;-121.358;2024-02-26T11:00:38;101263.41;;;17.95
49785;BMP280;35679;38.732;-121.358;2024-02-26T11:03:31;101256.63;;;17.92
49785;BMP280;35679;38.732;-121.358;2024-02-26T11:06:26;101257.84;;;17.90
49785;BMP280;35679;38.732;-121.358;2024-02-26T11:09:16;101251.66;;;17.89
49785;BMP280;35679;38.732;-121.358;2024-02-26T11:12:09;101244.88;;;17.87
49785;BMP280;35679;38.732;-121.358;2024-02-26T11:15:01;101243.28;;;17.86
49785;BMP280;35679;38.732;-121.358;2024-02-26T11:17:52;101241.41;;;17.86
49785;BMP280;35679;38.732;-121.358;2024-02-26T11:20:43;101243.28;;;17.86
49785;BMP280;35679;38.732;-121.358;2024-02-26T11:23:34;101234.41;;;17.85
49785;BMP280;35679;38.732;-121.358;2024-02-26T11:26:26;101233.59;;;17.85
49785;BMP280;35679;38.732;-121.358;2024-02-26T11:29:20;101226.81;;;17.82
49785;BMP280;35679;38.732;-121.358;2024-02-26T11:32:10;101232.38;;;17.81
49785;BMP280;35679;38.732;-121.358;2024-02-26T11:35:00;101225.38;;;17.80
49785;BMP280;35679;38.732;-121.358;2024-02-26T11:37:54;101223.94;;;17.77
49785;BMP280;35679;38.732;-121.358;2024-02-26T11:40:44;101213.44;;;17.76
49785;BMP280;35679;38.732;-121.358;2024-02-26T11:43:50;101224.75;;;17.78
49785;BMP280;35679;38.732;-121.358;2024-02-26T11:46:43;101222.28;;;17.76
49785;BMP280;35679;38.732;-121.358;2024-02-26T11:49:33;101216.09;;;17.76
49785;BMP280;35679;38.732;-121.358;2024-02-26T11:52:23;101220.84;;;17.74
49785;BMP280;35679;38.732;-121.358;2024-02-26T11:55:31;101214.28;;;17.70
49785;BMP280;35679;38.732;-121.358;2024-02-26T11:58:22;101218.56;;;17.71
49785;BMP280;35679;38.732;-121.358;2024-02-26T12:01:37;101219.59;;;17.70
49785;BMP280;35679;38.732;-121.358;2024-02-26T12:04:27;101213.84;;;17.67
49785;BMP280;35679;38.732;-121.358;2024-02-26T12:07:22;101225.31;;;17.67
49785;BMP280;35679;38.732;-121.358;2024-02-26T12:10:40;101221.00;;;17.66
49785;BMP280;35679;38.732;-121.358;2024-02-26T12:13:33;101219.78;;;17.62
49785;BMP280;35679;38.732;-121.358;2024-02-26T12:16:39;101218.75;;;17.63
49785;BMP280;35679;38.732;-121.358;2024-02-26T12:19:31;101226.97;;;17.62
49785;BMP280;35679;38.732;-121.358;2024-02-26T12:22:21;101230.66;;;17.61
49785;BMP280;35679;38.732;-121.358;2024-02-26T12:25:10;101238.44;;;17.62
49785;BMP280;35679;38.732;-121.358;2024-02-26T12:28:00;101237.84;;;17.60
49785;BMP280;35679;38.732;-121.358;2024-02-26T12:30:50;101244.19;;;17.59
49785;BMP280;35679;38.732;-121.358;2024-02-26T12:33:39;101242.34;;;17.60
49785;BMP280;35679;38.732;-121.358;2024-02-26T12:36:29;101242.53;;;17.58
49785;BMP280;35679;38.732;-121.358;2024-02-26T12:39:19;101248.53;;;17.60
49785;BMP280;35679;38.732;-121.358;2024-02-26T12:42:09;101254.25;;;17.57
49785;BMP280;35679;38.732;-121.358;2024-02-26T12:44:59;101250.94;;;17.55
49785;BMP280;35679;38.732;-121.358;2024-02-26T12:47:48;101251.97;;;17.54
49785;BMP280;35679;38.732;-121.358;2024-02-26T12:50:38;101261.00;;;17.53
49785;BMP280;35679;38.732;-121.358;2024-02-26T12:53:28;101262.81;;;17.53
49785;BMP280;35679;38.732;-121.358;2024-02-26T12:56:18;101269.22;;;17.52
49785;BMP280;35679;38.732;-121.358;2024-02-26T12:59:07;101261.38;;;17.50
49785;BMP280;35679;38.732;-121.358;2024-02-26T13:01:57;101265.25;;;17.48
49785;BMP280;35679;38.732;-121.358;2024-02-26T13:04:47;101270.44;;;17.49
49785;BMP280;35679;38.732;-121.358;2024-02-26T13:07:43;101272.47;;;17.47
49785;BMP280;35679;38.732;-121.358;2024-02-26T13:10:33;101270.81;;;17.46
49785;BMP280;35679;38.732;-121.358;2024-02-26T13:13:23;101281.47;;;17.46
49785;BMP280;35679;38.732;-121.358;2024-02-26T13:16:14;101278.81;;;17.46
49785;BMP280;35679;38.732;-121.358;2024-02-26T13:19:10;101270.00;;;17.46
49785;BMP280;35679;38.732;-121.358;2024-02-26T13:22:06;101273.47;;;17.46
49785;BMP280;35679;38.732;-121.358;2024-02-26T13:24:57;101273.69;;;17.45
49785;BMP280;35679;38.732;-121.358;2024-02-26T13:27:47;101274.09;;;17.42
49785;BMP280;35679;38.732;-121.358;2024-02-26T13:30:36;101277.38;;;17.44
49785;BMP280;35679;38.732;-121.358;2024-02-26T13:33:27;101279.59;;;17.40
49785;BMP280;35679;38.732;-121.358;2024-02-26T13:36:17;101275.88;;;17.35
49785;BMP280;35679;38.732;-121.358;2024-02-26T13:39:07;101279.78;;;17.32
49785;BMP280;35679;38.732;-121.358;2024-02-26T13:42:01;101275.66;;;17.30
49785;BMP280;35679;38.732;-121.358;2024-02-26T13:44:51;101281.44;;;17.33
49785;BMP280;35679;38.732;-121.358;2024-02-26T13:47:40;101281.81;;;17.30
49785;BMP280;35679;38.732;-121.358;2024-02-26T13:50:30;101285.09;;;17.26
49785;BMP280;35679;38.732;-121.358;2024-02-26T13:53:19;101278.69;;;17.27
49785;BMP280;35679;38.732;-121.358;2024-02-26T13:56:10;101274.75;;;17.23
49785;BMP280;35679;38.732;-121.358;2024-02-26T13:58:59;101278.91;;;17.25
49785;BMP280;35679;38.732;-121.358;2024-02-26T14:01:49;101270.06;;;17.25
49785;BMP280;35679;38.732;-121.358;2024-02-26T14:04:38;101271.88;;;17.24
49785;BMP280;35679;38.732;-121.358;2024-02-26T14:07:27;101265.75;;;17.24
49785;BMP280;35679;38.732;-121.358;2024-02-26T14:10:17;101266.53;;;17.24
49785;BMP280;35679;38.732;-121.358;2024-02-26T14:13:06;101268.59;;;17.22
49785;BMP280;35679;38.732;-121.358;2024-02-26T14:15:56;101268.59;;;17.22
49785;BMP280;35679;38.732;-121.358;2024-02-26T14:18:45;101272.94;;;17.23
49785;BMP280;35679;38.732;-121.358;2024-02-26T14:21:36;101269.19;;;17.18
49785;BMP280;35679;38.732;-121.358;2024-02-26T14:24:25;101272.25;;;17.15
49785;BMP280;35679;38.732;-121.358;2024-02-26T14:27:15;101262.59;;;17.14
49785;BMP280;35679;38.732;-121.358;2024-02-26T14:30:06;101269.78;;;17.13
49785;BMP280;35679;38.732;-121.358;2024-02-26T14:32:56;101281.47;;;17.12
49785;BMP280;35679;38.732;-121.358;2024-02-26T14:35:45;101291.72;;;17.15
49785;BMP280;35679;38.732;-121.358;2024-02-26T14:38:35;101287.63;;;17.13
49785;BMP280;35679;38.732;-121.358;2024-02-26T14:41:25;101287.25;;;17.16
49785;BMP280;35679;38.732;-121.358;2024-02-26T14:44:14;101289.66;;;17.11
49785;BMP280;35679;38.732;-121.358;2024-02-26T14:47:04;101293.78;;;17.13
49785;BMP280;35679;38.732;-121.358;2024-02-26T14:49:53;101297.47;;;17.12
49785;BMP280;35679;38.732;-121.358;2024-02-26T14:52:43;101301.16;;;17.11
49785;BMP280;35679;38.732;-121.358;2024-02-26T14:55:32;101292.13;;;17.12
49785;BMP280;35679;38.732;-121.358;2024-02-26T14:58:25;101272.63;;;17.12
49785;BMP280;35679;38.732;-121.358;2024-02-26T15:01:18;101280.03;;;17.10
49785;BMP280;35679;38.732;-121.358;2024-02-26T15:04:07;101274.84;;;17.08
49785;BMP280;35679;38.732;-121.358;2024-02-26T15:06:57;101273.41;;;17.06
49785;BMP280;35679;38.732;-121.358;2024-02-26T15:09:47;101268.50;;;17.09
49785;BMP280;35679;38.732;-121.358;2024-02-26T15:12:36;101263.19;;;17.09
49785;BMP280;35679;38.732;-121.358;2024-02-26T15:15:26;101252.13;;;17.12
49785;BMP280;35679;38.732;-121.358;2024-02-26T15:18:16;101244.16;;;17.12
49785;BMP280;35679;38.732;-121.358;2024-02-26T15:21:06;101245.16;;;17.11
49785;BMP280;35679;38.732;-121.358;2024-02-26T15:23:56;101256.25;;;17.15
49785;BMP280;35679;38.732;-121.358;2024-02-26T15:27:10;101255.03;;;17.17
49785;BMP280;35679;38.732;-121.358;2024-02-26T15:30:00;101258.72;;;17.16